createdAt,value
2022-09-01T00:01:50.197Z,13.72
2022-09-01T00:04:21.136Z,13.73
2022-09-01T00:06:48.952Z,13.73
2022-09-01T00:09:18.749Z,13.56
2022-09-01T00:11:50.513Z,13.67
2022-09-01T00:14:30.405Z,13.67
2022-09-01T00:17:00.105Z,13.64
2022-09-01T00:19:27.359Z,13.63
2022-09-01T00:21:55.095Z,13.58
2022-09-01T00:24:22.347Z,13.53
2022-09-01T00:26:49.339Z,13.55
2022-09-01T00:29:16.364Z,13.51
2022-09-01T00:31:43.843Z,13.45
2022-09-01T00:34:11.290Z,13.43
2022-09-01T00:36:38.120Z,13.27
2022-09-01T00:39:06.874Z,13.34
2022-09-01T00:41:38.235Z,13.40
2022-09-01T00:44:13.480Z,13.40
2022-09-01T00:46:55.458Z,13.36
2022-09-01T00:49:35.714Z,13.31
2022-09-01T00:52:13.706Z,13.12
2022-09-01T00:54:44.860Z,13.11
2022-09-01T00:57:13.187Z,12.94
2022-09-01T00:59:50.972Z,12.95
2022-09-01T01:02:17.646Z,12.80
2022-09-01T01:04:44.400Z,12.80
2022-09-01T01:07:12.618Z,12.78
2022-09-01T01:09:43.254Z,12.56
2022-09-01T01:12:18.663Z,12.66
2022-09-01T01:14:50.468Z,12.61
2022-09-01T01:17:19.737Z,12.60
2022-09-01T01:20:08.851Z,12.57
2022-09-01T01:22:58.757Z,12.56
2022-09-01T01:25:26.481Z,12.46
2022-09-01T01:28:14.242Z,12.44
2022-09-01T01:30:52.372Z,12.35
2022-09-01T01:33:22.670Z,12.33
2022-09-01T01:35:51.768Z,12.32
2022-09-01T01:38:21.572Z,12.11
2022-09-01T01:40:49.498Z,12.19
2022-09-01T01:43:20.012Z,12.13
2022-09-01T01:46:02.478Z,12.10
2022-09-01T01:48:30.223Z,12.07
2022-09-01T01:51:00.804Z,12.10
2022-09-01T01:53:28.948Z,12.05
2022-09-01T01:55:56.063Z,12.05
2022-09-01T01:58:24.527Z,11.89
2022-09-01T02:00:54.251Z,11.94
2022-09-01T02:03:25.054Z,11.91
2022-09-01T02:05:53.502Z,11.83
2022-09-01T02:08:22.857Z,11.73
2022-09-01T02:10:51.701Z,11.68
2022-09-01T02:13:20.958Z,11.53
2022-09-01T02:15:53.822Z,11.55
2022-09-01T02:18:36.027Z,11.46
2022-09-01T02:21:10.587Z,11.47
2022-09-01T02:23:41.060Z,11.45
2022-09-01T02:26:18.522Z,11.47
2022-09-01T02:28:54.221Z,11.36
2022-09-01T02:31:23.023Z,11.51
2022-09-01T02:33:49.794Z,11.52
2022-09-01T02:36:19.289Z,11.50
2022-09-01T02:38:53.276Z,11.58
2022-09-01T02:41:23.722Z,11.57
2022-09-01T02:43:50.992Z,11.52
2022-09-01T02:46:20.304Z,11.60
2022-09-01T02:48:51.362Z,11.53
2022-09-01T02:51:20.774Z,11.49
2022-09-01T02:53:53.029Z,11.47
2022-09-01T02:56:25.015Z,11.52
2022-09-01T02:58:52.998Z,11.49
2022-09-01T03:01:32.017Z,11.44
2022-09-01T03:04:01.800Z,11.42
2022-09-01T03:06:31.419Z,11.42
2022-09-01T03:09:01.878Z,11.40
2022-09-01T03:11:31.559Z,11.42
2022-09-01T03:13:58.513Z,11.41
2022-09-01T03:16:25.182Z,11.37
2022-09-01T03:18:52.568Z,11.32
2022-09-01T03:21:20.779Z,11.36
2022-09-01T03:23:48.444Z,11.34
2022-09-01T03:26:18.650Z,11.15
2022-09-01T03:28:46.286Z,11.23
2022-09-01T03:31:13.137Z,11.43
2022-09-01T03:33:40.827Z,11.37
2022-09-01T03:36:14.771Z,11.44
2022-09-01T03:38:43.939Z,11.41
2022-09-01T03:41:13.336Z,11.37
2022-09-01T03:43:47.038Z,11.28
2022-09-01T03:46:24.370Z,11.34
2022-09-01T03:48:58.492Z,11.47
2022-09-01T03:51:26.009Z,11.37
2022-09-01T03:53:55.010Z,11.33
2022-09-01T03:56:26.281Z,11.36
2022-09-01T03:58:56.215Z,11.41
2022-09-01T04:01:25.033Z,11.38
2022-09-01T04:03:52.991Z,11.39
2022-09-01T04:06:20.619Z,11.36
2022-09-01T04:08:47.582Z,11.36
2022-09-01T04:11:18.612Z,11.39
2022-09-01T04:13:46.330Z,11.38
2022-09-01T04:16:57.494Z,11.42
2022-09-01T04:19:26.823Z,11.40
2022-09-01T04:21:56.997Z,11.40
2022-09-01T04:24:28.375Z,11.42
2022-09-01T04:27:01.748Z,11.40
2022-09-01T04:29:29.790Z,11.39
2022-09-01T04:32:03.619Z,11.41
2022-09-01T04:34:37.274Z,11.41
2022-09-01T04:37:13.217Z,11.45
2022-09-01T04:39:40.304Z,11.52
2022-09-01T04:42:09.222Z,11.59
2022-09-01T04:44:36.667Z,11.65
2022-09-01T04:47:03.592Z,11.71
2022-09-01T04:49:33.758Z,11.74
2022-09-01T04:52:00.721Z,11.84
2022-09-01T04:54:27.368Z,11.92
2022-09-01T04:56:55.023Z,11.98
2022-09-01T04:59:24.178Z,12.08
2022-09-01T05:01:51.112Z,12.15
2022-09-01T05:04:24.472Z,12.24
2022-09-01T05:06:59.801Z,12.16
2022-09-01T05:09:29.068Z,12.35
2022-09-01T05:11:57.680Z,12.47
2022-09-01T05:14:25.636Z,12.54
2022-09-01T05:16:58.808Z,12.63
2022-09-01T05:19:28.938Z,12.75
2022-09-01T05:21:57.895Z,12.85
2022-09-01T05:24:30.194Z,12.89
2022-09-01T05:26:57.739Z,13.05
2022-09-01T05:29:25.588Z,13.16
2022-09-01T05:31:53.179Z,13.27
2022-09-01T05:34:26.733Z,13.34
2022-09-01T05:36:56.056Z,13.41
2022-09-01T05:39:22.887Z,13.51
2022-09-01T05:41:49.883Z,13.52
2022-09-01T05:44:17.017Z,13.48
2022-09-01T05:46:44.678Z,13.68
2022-09-01T05:49:16.894Z,13.76
2022-09-01T05:51:50.886Z,13.83
2022-09-01T05:54:27.383Z,13.94
2022-09-01T05:56:57.765Z,14.04
2022-09-01T05:59:31.550Z,14.11
2022-09-01T06:01:58.838Z,14.11
2022-09-01T06:04:26.861Z,14.10
2022-09-01T06:07:05.776Z,14.30
2022-09-01T06:09:38.175Z,14.45
2022-09-01T06:12:06.744Z,14.57
2022-09-01T06:14:34.134Z,14.66
2022-09-01T06:17:00.999Z,14.74
2022-09-01T06:19:28.471Z,14.81
2022-09-01T06:21:56.874Z,14.95
2022-09-01T06:24:23.592Z,15.09
2022-09-01T06:26:50.368Z,15.18
2022-09-01T06:29:17.059Z,15.34
2022-09-01T06:31:51.745Z,15.33
2022-09-01T06:34:19.595Z,15.52
2022-09-01T06:36:49.583Z,15.55
2022-09-01T06:39:26.601Z,15.60
2022-09-01T06:41:54.776Z,15.85
2022-09-01T06:44:24.959Z,15.95
2022-09-01T06:46:52.625Z,16.02
2022-09-01T06:49:21.496Z,16.18
2022-09-01T06:51:49.688Z,16.25
2022-09-01T06:54:19.927Z,16.35
2022-09-01T06:56:51.363Z,16.42
2022-09-01T06:59:19.924Z,16.56
2022-09-01T07:01:49.028Z,16.55
2022-09-01T07:04:21.480Z,16.69
2022-09-01T07:07:00.097Z,16.71
2022-09-01T07:09:47.098Z,16.76
2022-09-01T07:12:27.017Z,16.69
2022-09-01T07:17:43.159Z,16.79
2022-09-01T07:20:27.261Z,16.83
2022-09-01T07:23:04.515Z,16.86
2022-09-01T07:25:48.423Z,16.88
2022-09-01T07:28:25.478Z,16.88
2022-09-01T07:30:55.260Z,16.92
2022-09-01T07:33:44.171Z,16.95
2022-09-01T07:36:27.177Z,16.97
2022-09-01T07:44:28.821Z,17.04
2022-09-01T07:52:31.558Z,16.92
2022-09-01T07:54:58.200Z,16.95
2022-09-01T07:57:24.945Z,17.03
2022-09-01T07:59:55.637Z,17.10
2022-09-01T08:02:22.414Z,17.09
2022-09-01T08:04:49.124Z,17.17
2022-09-01T08:07:16.366Z,17.19
2022-09-01T08:09:44.114Z,17.27
2022-09-01T08:12:11.489Z,17.41
2022-09-01T08:14:38.208Z,17.54
2022-09-01T08:19:53.597Z,17.81
2022-09-01T08:22:25.226Z,17.91
2022-09-01T08:24:53.433Z,17.99
2022-09-01T08:27:20.787Z,18.03
2022-09-01T08:29:48.833Z,18.12
2022-09-01T08:32:15.504Z,18.26
2022-09-01T08:34:43.517Z,18.36
2022-09-01T08:37:10.075Z,18.46
2022-09-01T08:39:36.683Z,18.52
2022-09-01T08:42:41.696Z,18.63
2022-09-01T08:45:11.061Z,18.67
2022-09-01T08:47:58.366Z,18.74
2022-09-01T08:50:25.535Z,18.89
2022-09-01T08:53:10.749Z,18.97
2022-09-01T08:55:43.910Z,19.07
2022-09-01T08:58:15.202Z,19.13
2022-09-01T09:00:50.516Z,19.23
2022-09-01T09:03:40.578Z,19.24
2022-09-01T09:06:16.399Z,19.01
2022-09-01T09:08:58.019Z,19.18
2022-09-01T09:11:27.396Z,19.18
2022-09-01T09:13:59.885Z,19.16
2022-09-01T09:16:32.686Z,19.19
2022-09-01T09:19:06.495Z,19.13
2022-09-01T09:21:37.421Z,19.25
2022-09-01T09:24:10.551Z,19.30
2022-09-01T09:26:44.791Z,19.28
2022-09-01T09:29:11.649Z,19.26
2022-09-01T09:31:45.898Z,19.28
2022-09-01T09:34:27.808Z,19.34
2022-09-01T09:36:57.025Z,19.27
2022-09-01T09:39:23.906Z,19.12
2022-09-01T09:42:07.822Z,19.04
2022-09-01T09:44:41.431Z,19.20
2022-09-01T09:47:27.258Z,19.25
2022-09-01T09:50:38.164Z,19.20
2022-09-01T09:53:27.251Z,19.43
2022-09-01T09:56:19.804Z,19.51
2022-09-01T09:58:48.756Z,19.55
2022-09-01T10:01:30.706Z,19.66
2022-09-01T10:04:00.510Z,19.70
2022-09-01T10:06:36.195Z,19.80
2022-09-01T10:09:04.792Z,19.93
2022-09-01T10:11:35.619Z,19.97
2022-09-01T10:14:06.248Z,20.05
2022-09-01T10:16:37.668Z,20.23
2022-09-01T10:19:12.563Z,20.39
2022-09-01T10:21:42.691Z,20.38
2022-09-01T10:24:17.356Z,20.52
2022-09-01T10:26:52.974Z,20.47
2022-09-01T10:29:34.758Z,20.38
2022-09-01T10:32:30.758Z,20.41
2022-09-01T10:34:56.158Z,20.54
2022-09-01T10:37:27.635Z,20.73
2022-09-01T10:40:34.707Z,20.74
2022-09-01T10:43:25.224Z,20.66
2022-09-01T10:45:57.903Z,20.62
2022-09-01T10:48:46.230Z,20.57
2022-09-01T10:51:19.204Z,20.69
2022-09-01T10:53:52.598Z,20.75
2022-09-01T10:56:51.339Z,20.72
2022-09-01T10:59:40.104Z,20.87
2022-09-01T11:02:26.971Z,20.92
2022-09-01T11:04:54.505Z,20.97
2022-09-01T11:07:50.084Z,21.01
2022-09-01T11:10:35.794Z,20.95
2022-09-01T11:13:21.759Z,20.93
2022-09-01T11:15:48.951Z,20.85
2022-09-01T11:18:26.075Z,20.92
2022-09-01T11:20:55.426Z,21.10
2022-09-01T11:23:30.611Z,21.10
2022-09-01T11:26:32.406Z,21.17
2022-09-01T11:28:59.518Z,21.33
2022-09-01T11:31:31.143Z,21.51
2022-09-01T11:34:13.841Z,21.84
2022-09-01T11:36:47.416Z,21.90
2022-09-01T11:39:17.853Z,22.03
2022-09-01T11:41:51.747Z,22.22
2022-09-01T11:44:42.769Z,22.27
2022-09-01T11:47:19.181Z,22.41
2022-09-01T11:49:56.990Z,22.49
2022-09-01T11:52:27.973Z,22.34
2022-09-01T11:54:54.739Z,22.14
2022-09-01T11:57:22.955Z,22.14
2022-09-01T11:59:50.384Z,22.20
2022-09-01T12:02:19.049Z,22.55
2022-09-01T12:04:46.354Z,23.00
2022-09-01T12:07:43.089Z,23.17
2022-09-01T12:10:22.035Z,22.93
2022-09-01T12:12:48.592Z,22.77
2022-09-01T12:15:25.343Z,23.32
2022-09-01T12:17:53.691Z,23.52
2022-09-01T12:20:29.405Z,23.77
2022-09-01T12:22:58.387Z,23.98
2022-09-01T12:25:30.399Z,23.94
2022-09-01T12:28:00.147Z,23.87
2022-09-01T12:30:26.894Z,24.23
2022-09-01T12:33:22.809Z,25.56
2022-09-01T12:35:41.886Z,26.17
2022-09-01T12:38:20.735Z,26.77
2022-09-01T12:40:50.336Z,26.41
2022-09-01T12:43:29.239Z,26.78
2022-09-01T12:45:57.447Z,27.11
2022-09-01T12:48:38.069Z,27.68
2022-09-01T12:51:24.532Z,28.41
2022-09-01T12:53:58.550Z,29.11
2022-09-01T12:56:36.167Z,27.73
2022-09-01T12:59:14.143Z,27.10
2022-09-01T13:01:42.978Z,28.11
2022-09-01T13:04:22.381Z,27.89
2022-09-01T13:06:49.839Z,27.03
2022-09-01T13:09:16.446Z,27.66
2022-09-01T13:14:31.721Z,29.32
2022-09-01T13:16:58.340Z,29.81
2022-09-01T13:19:28.814Z,30.20
2022-09-01T13:21:57.347Z,30.07
2022-09-01T13:24:28.688Z,30.06
2022-09-01T13:29:43.822Z,31.47
2022-09-01T13:32:19.336Z,32.33
2022-09-01T13:34:47.334Z,32.82
2022-09-01T13:37:14.123Z,32.95
2022-09-01T13:39:40.671Z,33.09
2022-09-01T13:42:07.390Z,33.73
2022-09-01T13:44:35.425Z,34.38
2022-09-01T13:47:28.780Z,33.85
2022-09-01T13:52:35.766Z,34.31
2022-09-01T13:55:02.438Z,33.54
2022-09-01T13:57:31.526Z,34.57
2022-09-01T14:00:10.997Z,35.13
2022-09-01T14:02:43.062Z,34.93
2022-09-01T14:05:10.529Z,34.41
2022-09-01T14:07:37.524Z,34.33
2022-09-01T14:10:05.070Z,34.81
2022-09-01T14:12:32.587Z,34.16
2022-09-01T14:17:56.229Z,34.01
2022-09-01T14:20:25.796Z,34.00
2022-09-01T14:22:52.705Z,34.36
2022-09-01T14:25:20.629Z,35.20
2022-09-01T14:27:48.996Z,35.01
2022-09-01T14:30:30.461Z,36.37
2022-09-01T14:33:01.533Z,35.37
2022-09-01T14:35:30.738Z,35.33
2022-09-01T14:37:59.004Z,35.22
2022-09-01T14:40:26.070Z,35.67
2022-09-01T14:42:53.191Z,35.75
2022-09-01T14:45:25.513Z,34.29
2022-09-01T14:47:54.930Z,33.95
2022-09-01T14:50:23.684Z,33.30
2022-09-01T14:52:54.412Z,33.30
2022-09-01T14:55:25.721Z,33.00
2022-09-01T14:57:52.465Z,33.14
2022-09-01T15:00:19.883Z,33.23
2022-09-01T15:02:47.421Z,33.45
2022-09-01T15:05:14.566Z,32.92
2022-09-01T15:07:42.715Z,32.81
2022-09-01T15:10:15.792Z,31.90
2022-09-01T15:12:47.135Z,31.62
2022-09-01T15:15:13.862Z,32.50
2022-09-01T15:17:43.344Z,32.86
2022-09-01T15:20:31.429Z,32.23
2022-09-01T15:22:58.691Z,32.95
2022-09-01T15:25:25.601Z,32.25
2022-09-01T15:27:52.602Z,31.53
2022-09-01T15:30:20.251Z,30.20
2022-09-01T15:32:49.079Z,29.67
2022-09-01T15:35:16.203Z,29.13
2022-09-01T15:37:43.409Z,28.22
2022-09-01T15:40:10.492Z,27.57
2022-09-01T15:42:38.180Z,27.64
2022-09-01T15:45:08.329Z,27.11
2022-09-01T15:47:35.415Z,26.77
2022-09-01T15:50:06.955Z,26.54
2022-09-01T15:52:34.767Z,26.57
2022-09-01T15:55:03.257Z,26.25
2022-09-01T15:57:29.864Z,25.72
2022-09-01T15:59:57.402Z,25.40
2022-09-01T16:02:27.743Z,24.88
2022-09-01T16:04:56.759Z,24.44
2022-09-01T16:07:23.770Z,24.32
2022-09-01T16:09:57.867Z,23.98
2022-09-01T16:12:26.527Z,23.77
2022-09-01T16:14:55.189Z,23.53
2022-09-01T16:17:45.173Z,23.40
2022-09-01T16:20:21.833Z,23.32
2022-09-01T16:22:55.516Z,23.15
2022-09-01T16:25:30.035Z,23.16
2022-09-01T16:27:57.598Z,23.06
2022-09-01T16:30:29.119Z,22.99
2022-09-01T16:33:02.754Z,23.04
2022-09-01T16:35:44.797Z,23.02
2022-09-01T16:38:20.582Z,23.02
2022-09-01T16:40:57.904Z,22.75
2022-09-01T16:43:37.574Z,22.42
2022-09-01T16:46:19.471Z,22.43
2022-09-01T16:48:47.199Z,22.38
2022-09-01T16:51:19.126Z,22.18
2022-09-01T16:53:54.147Z,22.02
2022-09-01T16:56:35.574Z,21.84
2022-09-01T16:59:24.756Z,21.65
2022-09-01T17:02:00.038Z,21.37
2022-09-01T17:04:29.434Z,21.18
2022-09-01T17:07:09.110Z,21.09
2022-09-01T17:09:40.713Z,20.91
2022-09-01T17:12:27.580Z,20.63
2022-09-01T17:15:06.866Z,20.59
2022-09-01T17:17:47.789Z,20.50
2022-09-01T17:20:16.237Z,20.38
2022-09-01T17:22:57.060Z,20.24
2022-09-01T17:25:33.717Z,19.95
2022-09-01T17:28:04.393Z,19.80
2022-09-01T17:30:36.246Z,19.57
2022-09-01T17:33:34.546Z,19.30
2022-09-01T17:36:03.941Z,19.16
2022-09-01T17:39:03.291Z,19.05
2022-09-01T17:41:34.367Z,18.91
2022-09-01T17:44:12.854Z,18.81
2022-09-01T17:47:12.015Z,18.70
2022-09-01T17:49:53.321Z,18.67
2022-09-01T17:52:40.773Z,18.49
2022-09-01T17:55:38.186Z,18.38
2022-09-01T17:58:10.355Z,18.34
2022-09-01T18:00:52.852Z,18.31
2022-09-01T18:03:44.032Z,18.29
2022-09-01T18:06:15.700Z,18.25
2022-09-01T18:08:44.822Z,18.22
2022-09-01T18:11:50.474Z,18.14
2022-09-01T18:14:58.424Z,18.03
2022-09-01T18:17:29.068Z,17.97
2022-09-01T18:20:09.929Z,17.84
2022-09-01T18:22:47.336Z,17.70
2022-09-01T18:25:23.068Z,17.62
2022-09-01T18:27:50.058Z,17.54
2022-09-01T18:30:36.360Z,17.46
2022-09-01T18:33:37.139Z,17.28
2022-09-01T18:36:41.249Z,17.12
2022-09-01T18:39:29.466Z,17.03
2022-09-01T18:42:19.091Z,16.96
2022-09-01T18:45:24.801Z,16.83
2022-09-01T18:48:09.156Z,16.69
2022-09-01T18:51:03.454Z,16.63
2022-09-01T18:53:44.642Z,16.39
2022-09-01T18:56:25.090Z,16.15
2022-09-01T18:58:51.761Z,16.14
2022-09-01T19:01:40.882Z,16.14
2022-09-01T19:04:31.926Z,16.08
2022-09-01T19:07:01.711Z,16.02
2022-09-01T19:09:42.542Z,15.92
2022-09-01T19:12:41.211Z,15.85
2022-09-01T19:15:25.725Z,15.59
2022-09-01T19:18:12.817Z,15.73
2022-09-01T19:21:02.620Z,15.56
2022-09-01T19:23:36.066Z,15.53
2022-09-01T19:26:07.635Z,15.44
2022-09-01T19:28:40.196Z,15.37
2022-09-01T19:31:17.940Z,15.16
2022-09-01T19:33:51.070Z,15.13
2022-09-01T19:36:35.575Z,15.01
2022-09-01T19:39:02.524Z,14.69
2022-09-01T19:41:53.721Z,14.59
2022-09-01T19:44:54.898Z,14.66
2022-09-01T19:47:36.915Z,14.67
2022-09-01T19:50:06.445Z,14.71
2022-09-01T19:52:49.425Z,14.49
2022-09-01T19:55:36.650Z,14.33
2022-09-01T19:58:15.131Z,14.25
2022-09-01T20:00:53.519Z,14.19
2022-09-01T20:03:28.805Z,14.14
2022-09-01T20:06:05.046Z,14.10
2022-09-01T20:08:41.776Z,14.07
2022-09-01T20:11:18.879Z,14.10
2022-09-01T20:14:03.399Z,14.15
2022-09-01T20:16:41.708Z,14.14
2022-09-01T20:19:24.418Z,14.05
2022-09-01T20:21:51.073Z,14.06
2022-09-01T20:24:39.635Z,14.05
2022-09-01T20:27:33.987Z,14.09
2022-09-01T20:30:07.600Z,14.08
2022-09-01T20:32:59.807Z,14.12
2022-09-01T20:35:39.941Z,14.16
2022-09-01T20:38:36.741Z,14.07
2022-09-01T20:41:19.499Z,14.00
2022-09-01T20:43:51.725Z,14.00
2022-09-01T20:46:20.554Z,13.92
2022-09-01T20:48:48.023Z,14.00
2022-09-01T20:51:27.615Z,14.07
2022-09-01T20:54:23.181Z,14.06
2022-09-01T20:57:05.030Z,14.02
2022-09-01T21:00:07.947Z,14.02
2022-09-01T21:02:34.686Z,13.95
2022-09-01T21:05:01.303Z,13.91
2022-09-01T21:07:48.721Z,13.88
2022-09-01T21:10:45.207Z,13.85
2022-09-01T21:13:18.964Z,13.84
2022-09-01T21:15:59.268Z,13.85
2022-09-01T21:19:27.471Z,13.92
2022-09-01T21:22:07.846Z,13.96
2022-09-01T21:24:35.472Z,14.00
2022-09-01T21:27:07.590Z,14.01
2022-09-01T21:30:00.288Z,13.98
2022-09-01T21:32:29.211Z,13.97
2022-09-01T21:34:56.635Z,13.93
2022-09-01T21:37:24.827Z,13.95
2022-09-01T21:39:53.902Z,13.93
2022-09-01T21:42:24.065Z,13.82
2022-09-01T21:44:52.102Z,13.53
2022-09-01T21:47:21.703Z,13.46
2022-09-01T21:49:48.350Z,13.37
2022-09-01T21:52:15.021Z,13.24
2022-09-01T21:54:41.683Z,13.12
2022-09-01T21:57:08.307Z,13.04
2022-09-01T21:59:34.978Z,12.75
2022-09-01T22:02:02.128Z,12.82
2022-09-01T22:04:28.718Z,12.76
2022-09-01T22:06:55.345Z,12.69
2022-09-01T22:09:21.985Z,12.70
2022-09-01T22:11:50.453Z,12.82
2022-09-01T22:14:18.514Z,12.79
2022-09-01T22:16:45.117Z,12.60
2022-09-01T22:19:12.169Z,12.54
2022-09-01T22:21:39.845Z,12.64
2022-09-01T22:24:06.721Z,12.75
2022-09-01T22:26:34.283Z,12.81
2022-09-01T22:29:05.625Z,12.80
2022-09-01T22:31:34.734Z,12.83
2022-09-01T22:34:01.297Z,12.81
2022-09-01T22:36:34.755Z,12.80
2022-09-01T22:39:01.857Z,12.74
2022-09-01T22:41:30.634Z,12.74
2022-09-01T22:44:00.181Z,12.70
2022-09-01T22:46:29.252Z,12.73
2022-09-01T22:48:57.361Z,12.71
2022-09-01T22:51:24.970Z,12.59
2022-09-01T22:53:54.293Z,12.68
2022-09-01T22:56:24.168Z,12.65
2022-09-01T22:58:54.313Z,12.63
2022-09-01T23:01:25.238Z,12.62
2022-09-01T23:03:52.376Z,12.60
2022-09-01T23:06:28.149Z,12.54
2022-09-01T23:08:57.223Z,12.50
2022-09-01T23:11:24.593Z,12.49
2022-09-01T23:13:51.689Z,12.49
2022-09-01T23:16:20.675Z,12.31
2022-09-01T23:18:49.029Z,12.43
2022-09-01T23:21:19.323Z,12.40
2022-09-01T23:23:46.685Z,12.38
2022-09-01T23:26:14.476Z,12.26
2022-09-01T23:28:42.886Z,12.25
2022-09-01T23:31:16.874Z,12.23
2022-09-01T23:33:44.037Z,12.19
2022-09-01T23:36:13.861Z,12.20
2022-09-01T23:38:41.277Z,12.14
2022-09-01T23:41:13.984Z,12.11
2022-09-01T23:43:40.654Z,12.08
2022-09-01T23:46:08.095Z,12.04
2022-09-01T23:48:34.767Z,11.99
2022-09-01T23:51:08.654Z,11.97
2022-09-01T23:53:36.520Z,11.91
2022-09-01T23:56:08.027Z,11.88
2022-09-01T23:58:34.751Z,11.84
